createdAt,value
2019-05-16T00:03:20.271Z,1.60
2019-05-16T00:08:19.830Z,2.40
2019-05-16T00:13:19.398Z,2.03
2019-05-16T00:18:19.416Z,4.10
2019-05-16T00:23:18.956Z,3.83
2019-05-16T00:28:18.558Z,3.13
2019-05-16T00:33:18.464Z,1.90
2019-05-16T00:38:20.032Z,3.30
2019-05-16T00:43:19.607Z,1.90
2019-05-16T00:48:19.137Z,4.90
2019-05-16T00:53:18.760Z,1.53
2019-05-16T00:58:19.035Z,3.30
2019-05-16T01:03:20.462Z,3.57
2019-05-16T01:08:20.221Z,5.50
2019-05-16T01:13:19.810Z,1.53
2019-05-16T01:18:19.365Z,11.40
2019-05-16T01:23:18.899Z,7.20
2019-05-16T01:28:18.582Z,1.43
2019-05-16T01:33:19.276Z,1.87
2019-05-16T01:38:19.020Z,3.53
2019-05-16T01:43:18.543Z,1.43
2019-05-16T01:48:19.080Z,1.20
2019-05-16T01:53:19.138Z,6.73
2019-05-16T01:58:20.037Z,1.33
2019-05-16T02:03:20.086Z,5.33
2019-05-16T02:08:20.716Z,1.90
2019-05-16T02:13:23.161Z,7.90
2019-05-16T02:18:21.566Z,5.80
2019-05-16T02:23:21.126Z,3.73
2019-05-16T02:28:23.677Z,5.57
2019-05-16T02:33:21.984Z,2.57
2019-05-16T02:38:21.573Z,4.57
2019-05-16T02:43:25.867Z,1.97
2019-05-16T02:48:22.398Z,4.30
2019-05-16T02:53:22.587Z,4.50
2019-05-16T02:58:23.582Z,3.90
2019-05-16T03:03:23.831Z,10.93
2019-05-16T03:08:24.906Z,4.27
2019-05-16T03:13:26.226Z,9.87
2019-05-16T03:18:30.909Z,3.70
2019-05-16T03:23:30.909Z,3.27
2019-05-16T03:28:30.878Z,4.53
2019-05-16T03:33:40.223Z,11.73
2019-05-16T03:38:31.857Z,2.20
2019-05-16T03:43:31.382Z,2.07
2019-05-16T03:48:31.652Z,5.13
2019-05-16T03:53:31.916Z,2.20
2019-05-16T03:58:31.689Z,4.60
2019-05-16T04:03:33.113Z,3.53
2019-05-16T04:08:32.488Z,4.47
2019-05-16T04:13:32.304Z,5.47
2019-05-16T04:18:32.287Z,5.00
2019-05-16T04:23:31.982Z,10.37
2019-05-16T04:28:32.113Z,3.80
2019-05-16T04:33:32.887Z,4.90
2019-05-16T04:38:40.838Z,2.30
2019-05-16T04:43:33.774Z,2.50
2019-05-16T04:48:33.326Z,7.13
2019-05-16T04:53:32.935Z,2.77
2019-05-16T04:58:32.489Z,5.00
2019-05-16T05:03:32.033Z,3.03
2019-05-16T05:08:48.659Z,2.63
2019-05-16T05:13:32.903Z,5.60
2019-05-16T05:18:32.447Z,5.77
2019-05-16T05:23:31.993Z,4.60
2019-05-16T05:28:31.630Z,2.40
2019-05-16T05:33:31.211Z,2.50
2019-05-16T05:38:31.186Z,7.20
2019-05-16T05:43:30.949Z,2.83
2019-05-16T05:48:30.947Z,3.27
2019-05-16T05:53:30.704Z,1.20
2019-05-16T05:58:30.986Z,1.80
2019-05-16T06:03:32.909Z,3.07
2019-05-16T06:08:31.963Z,3.47
2019-05-16T06:13:31.514Z,3.37
2019-05-16T06:18:31.066Z,1.50
2019-05-16T06:23:31.055Z,5.80
2019-05-16T06:28:31.095Z,7.37
2019-05-16T06:33:30.764Z,8.10
2019-05-16T06:38:30.379Z,4.10
2019-05-16T06:43:31.039Z,2.43
2019-05-16T06:48:30.712Z,11.50
2019-05-16T06:53:30.301Z,4.30
2019-05-16T06:58:30.437Z,1.80
2019-05-16T07:03:30.907Z,1.57
2019-05-16T07:08:31.216Z,1.60
2019-05-16T07:13:31.014Z,4.03
2019-05-16T07:18:31.148Z,1.23
2019-05-16T07:23:31.020Z,1.70
2019-05-16T07:28:30.562Z,1.70
2019-05-16T07:33:31.259Z,1.43
2019-05-16T07:38:31.197Z,2.70
2019-05-16T07:43:31.195Z,2.60
2019-05-16T07:48:31.744Z,1.50
2019-05-16T07:53:33.180Z,1.00
2019-05-16T07:58:32.946Z,5.63
2019-05-16T08:03:32.568Z,5.30
2019-05-16T08:08:32.129Z,3.50
2019-05-16T08:13:31.794Z,2.97
2019-05-16T08:18:31.438Z,3.07
2019-05-16T08:23:31.007Z,4.73
2019-05-16T08:28:31.210Z,5.87
2019-05-16T08:33:32.063Z,9.03
2019-05-16T08:38:31.967Z,5.43
2019-05-16T08:43:31.953Z,3.83
2019-05-16T08:48:32.222Z,5.90
2019-05-16T08:53:32.237Z,3.37
2019-05-16T08:58:33.012Z,3.47
2019-05-16T09:03:33.204Z,5.47
2019-05-16T09:08:33.059Z,3.50
2019-05-16T09:13:33.013Z,3.57
2019-05-16T09:18:40.652Z,3.00
2019-05-16T09:23:33.807Z,4.27
2019-05-16T09:28:33.339Z,3.67
2019-05-16T09:33:33.871Z,3.73
2019-05-16T09:38:33.426Z,2.40
2019-05-16T09:43:33.047Z,6.50
2019-05-16T09:48:32.598Z,3.00
2019-05-16T09:53:32.330Z,8.73
2019-05-16T09:58:31.878Z,3.43
2019-05-16T10:03:31.431Z,7.27
2019-05-16T10:08:33.823Z,2.47
2019-05-16T10:13:32.525Z,3.67
2019-05-16T10:18:32.067Z,5.23
2019-05-16T10:23:32.588Z,2.20
2019-05-16T10:28:32.169Z,3.93
2019-05-16T10:33:31.711Z,2.73
2019-05-16T10:38:31.257Z,4.80
2019-05-16T10:43:30.816Z,2.20
2019-05-16T10:48:30.350Z,2.33
2019-05-16T10:53:58.022Z,1.93
2019-05-16T10:58:36.940Z,2.43
2019-05-16T11:03:32.395Z,2.90
2019-05-16T11:08:32.024Z,2.77
2019-05-16T11:13:31.558Z,2.10
2019-05-16T11:18:31.128Z,4.73
2019-05-16T11:23:31.484Z,3.90
2019-05-16T11:28:31.324Z,3.77
2019-05-16T11:33:31.289Z,2.87
2019-05-16T11:38:30.830Z,2.30
2019-05-16T11:43:30.378Z,2.40
2019-05-16T11:48:29.955Z,2.70
2019-05-16T11:53:29.593Z,2.43
2019-05-16T11:58:29.150Z,3.40
2019-05-16T12:03:28.703Z,2.90
2019-05-16T12:08:28.262Z,2.30
2019-05-16T12:13:32.660Z,6.40
2019-05-16T12:18:29.090Z,2.73
2019-05-16T12:23:28.654Z,2.50
2019-05-16T12:28:28.382Z,2.47
2019-05-16T12:33:27.934Z,4.23
2019-05-16T12:38:27.852Z,3.13
2019-05-16T12:43:44.114Z,4.53
2019-05-16T12:48:28.900Z,4.53
2019-05-16T12:53:31.832Z,7.13
2019-05-16T12:58:37.680Z,3.80
2019-05-16T13:03:30.984Z,8.00
2019-05-16T13:08:30.607Z,5.93
2019-05-16T13:13:30.161Z,5.87
2019-05-16T13:18:29.702Z,4.77
2019-05-16T13:23:29.278Z,6.47
2019-05-16T13:28:29.008Z,5.40
2019-05-16T13:33:28.546Z,8.40
2019-05-16T13:38:28.233Z,7.80
2019-05-16T13:43:27.854Z,7.63
2019-05-16T13:48:27.403Z,9.70
2019-05-16T13:53:27.360Z,11.63
2019-05-16T13:58:28.326Z,15.37
2019-05-16T14:03:28.081Z,9.03
2019-05-16T14:08:27.972Z,10.00
2019-05-16T14:13:28.050Z,9.73
2019-05-16T14:18:27.815Z,14.87
2019-05-16T14:23:28.308Z,23.60
2019-05-16T14:28:28.109Z,13.90
2019-05-16T14:33:27.846Z,16.90
2019-05-16T14:38:27.651Z,14.10
2019-05-16T14:43:27.357Z,14.43
2019-05-16T14:48:28.087Z,17.33
2019-05-16T14:53:28.442Z,20.20
2019-05-16T14:58:30.795Z,22.60
2019-05-16T15:03:29.649Z,20.20
2019-05-16T15:08:29.236Z,19.80
2019-05-16T15:13:28.791Z,28.43
2019-05-16T15:18:28.341Z,29.70
2019-05-16T15:23:28.629Z,22.57
2019-05-16T15:28:51.269Z,20.93
2019-05-16T15:33:49.002Z,27.00
2019-05-16T15:38:48.625Z,21.20
2019-05-16T15:43:49.263Z,14.00
2019-05-16T15:48:48.977Z,16.60
2019-05-16T15:53:48.654Z,17.00
2019-05-16T15:58:48.242Z,13.97
2019-05-16T16:03:47.902Z,16.67
2019-05-16T16:08:47.730Z,13.77
2019-05-16T16:13:48.406Z,14.23
2019-05-16T16:18:48.154Z,12.77
2019-05-16T16:23:47.719Z,13.67
2019-05-16T16:28:47.275Z,9.93
2019-05-16T16:33:46.912Z,10.80
2019-05-16T16:38:47.695Z,12.00
2019-05-16T16:43:47.848Z,17.53
2019-05-16T16:48:47.574Z,10.03
2019-05-16T16:53:47.279Z,11.93
2019-05-16T16:58:46.938Z,19.37
2019-05-16T17:03:47.123Z,13.40
2019-05-16T17:08:47.395Z,13.00
2019-05-16T17:13:48.285Z,13.07
2019-05-16T17:18:48.587Z,12.70
2019-05-16T17:23:48.130Z,14.70
2019-05-16T17:28:47.693Z,12.60
2019-05-16T17:33:47.246Z,12.90
2019-05-16T17:38:47.047Z,11.80
2019-05-16T17:43:47.003Z,15.37
2019-05-16T17:48:46.944Z,13.50
2019-05-16T17:53:46.638Z,10.80
2019-05-16T17:58:46.175Z,13.40
2019-05-16T18:03:45.788Z,12.23
2019-05-16T18:08:46.818Z,14.17
2019-05-16T18:13:47.700Z,11.87
2019-05-16T18:18:49.088Z,9.77
2019-05-16T18:23:48.850Z,9.23
2019-05-16T18:28:48.454Z,10.47
2019-05-16T18:33:48.036Z,14.87
2019-05-16T18:38:47.599Z,16.40
2019-05-16T18:43:47.336Z,14.20
2019-05-16T18:48:47.272Z,12.03
2019-05-16T18:53:46.942Z,11.03
2019-05-16T18:58:46.848Z,14.70
2019-05-16T19:03:48.934Z,14.00
2019-05-16T19:08:47.867Z,14.93
2019-05-16T19:13:47.900Z,16.00
2019-05-16T19:18:49.026Z,14.23
2019-05-16T19:23:48.583Z,11.93
2019-05-16T19:28:48.158Z,22.73
2019-05-16T19:33:48.883Z,18.70
2019-05-16T19:38:48.810Z,18.67
2019-05-16T19:43:48.375Z,14.00
2019-05-16T19:48:48.001Z,19.47
2019-05-16T19:53:47.561Z,15.27
2019-05-16T19:58:47.219Z,14.97
2019-05-16T20:03:47.215Z,15.17
2019-05-16T20:08:46.794Z,14.73
2019-05-16T20:13:47.364Z,17.30
2019-05-16T20:18:47.221Z,19.63
2019-05-16T20:23:47.260Z,16.50
2019-05-16T20:28:47.509Z,17.90
2019-05-16T20:33:48.313Z,17.17
2019-05-16T20:38:47.867Z,16.40
2019-05-16T20:43:47.617Z,14.03
2019-05-16T20:48:47.172Z,17.70
2019-05-16T20:53:49.685Z,18.87
2019-05-16T20:58:48.952Z,16.57
2019-05-16T21:03:48.506Z,17.70
2019-05-16T21:08:49.545Z,19.93
2019-05-16T21:13:49.514Z,17.47
2019-05-16T21:18:49.139Z,20.53
2019-05-16T21:23:48.691Z,19.17
2019-05-16T21:28:49.420Z,18.30
2019-05-16T21:33:48.970Z,17.40
2019-05-16T21:38:48.523Z,16.60
2019-05-16T21:43:48.135Z,17.47
2019-05-16T21:48:47.690Z,17.83
2019-05-16T21:53:47.338Z,22.60
2019-05-16T21:58:47.382Z,20.90
2019-05-16T22:03:47.175Z,16.87
2019-05-16T22:08:46.972Z,17.43
2019-05-16T22:13:47.051Z,19.07
2019-05-16T22:18:47.596Z,22.73
2019-05-16T22:23:47.466Z,16.50
2019-05-16T22:28:49.484Z,16.97
2019-05-16T22:33:49.400Z,16.40
2019-05-16T22:38:48.953Z,16.20
2019-05-16T22:43:48.529Z,16.70
2019-05-16T22:48:48.068Z,17.37
2019-05-16T22:53:47.603Z,15.57
2019-05-16T22:58:47.322Z,16.87
2019-05-16T23:03:46.895Z,21.10
2019-05-16T23:08:47.130Z,16.37
2019-05-16T23:13:47.919Z,20.27
2019-05-16T23:18:47.581Z,16.73
2019-05-16T23:23:47.131Z,12.87
2019-05-16T23:28:47.194Z,18.27
2019-05-16T23:33:47.136Z,16.10
2019-05-16T23:38:47.375Z,16.40
2019-05-16T23:43:47.391Z,16.50
2019-05-16T23:48:47.305Z,21.87
2019-05-16T23:53:47.034Z,17.73
2019-05-16T23:58:47.724Z,15.20
